createdAt,value
2023-09-24T00:00:50.132Z,1.00
2023-09-24T00:01:50.110Z,1.00
2023-09-24T00:02:50.186Z,0.80
2023-09-24T00:03:50.431Z,1.20
2023-09-24T00:04:50.096Z,1.00
2023-09-24T00:05:50.159Z,0.90
2023-09-24T00:06:50.056Z,0.90
2023-09-24T00:07:50.046Z,1.20
2023-09-24T00:08:50.052Z,0.90
2023-09-24T00:09:50.023Z,1.00
2023-09-24T00:10:50.002Z,0.80
2023-09-24T00:11:50.023Z,0.90
2023-09-24T00:12:50.003Z,1.20
2023-09-24T00:13:50.223Z,0.90
2023-09-24T00:14:50.067Z,0.80
2023-09-24T00:15:50.064Z,0.80
2023-09-24T00:16:49.944Z,1.00
2023-09-24T00:17:50.011Z,1.20
2023-09-24T00:18:49.918Z,1.00
2023-09-24T00:19:49.892Z,0.70
2023-09-24T00:20:49.906Z,0.90
2023-09-24T00:21:49.877Z,1.00
2023-09-24T00:22:49.873Z,1.00
2023-09-24T00:23:50.027Z,1.00
2023-09-24T00:24:49.852Z,1.10
2023-09-24T00:25:49.828Z,0.90
2023-09-24T00:26:49.840Z,0.90
2023-09-24T00:27:49.796Z,1.20
2023-09-24T00:28:49.809Z,0.90
2023-09-24T00:29:49.818Z,1.00
2023-09-24T00:30:49.769Z,0.80
2023-09-24T00:31:49.816Z,1.00
2023-09-24T00:32:49.861Z,0.60
2023-09-24T00:33:49.986Z,1.00
2023-09-24T00:34:49.726Z,0.90
2023-09-24T00:35:49.847Z,0.80
2023-09-24T00:36:49.702Z,1.00
2023-09-24T00:37:49.702Z,0.80
2023-09-24T00:38:49.742Z,0.90
2023-09-24T00:39:49.682Z,1.10
2023-09-24T00:40:49.662Z,0.80
2023-09-24T00:41:49.724Z,1.40
2023-09-24T00:42:49.668Z,0.70
2023-09-24T00:43:49.910Z,1.20
2023-09-24T00:44:49.728Z,1.00
2023-09-24T00:45:49.632Z,0.90
2023-09-24T00:46:49.707Z,0.80
2023-09-24T00:47:49.659Z,0.70
2023-09-24T00:48:49.647Z,0.70
2023-09-24T00:49:49.562Z,0.80
2023-09-24T00:50:49.638Z,0.90
2023-09-24T00:51:49.594Z,1.00
2023-09-24T00:52:49.532Z,0.70
2023-09-24T00:53:49.856Z,0.80
2023-09-24T00:54:49.526Z,1.00
2023-09-24T00:55:49.500Z,1.00
2023-09-24T00:56:49.572Z,0.80
2023-09-24T00:57:49.498Z,1.00
2023-09-24T00:58:49.493Z,0.90
2023-09-24T00:59:49.533Z,1.00
2023-09-24T01:00:49.440Z,0.80
2023-09-24T01:01:49.508Z,1.00
2023-09-24T01:02:49.583Z,0.80
2023-09-24T01:03:49.786Z,0.80
2023-09-24T01:04:49.400Z,0.90
2023-09-24T01:05:49.468Z,1.00
2023-09-24T01:06:49.381Z,1.20
2023-09-24T01:07:49.398Z,0.90
2023-09-24T01:08:49.391Z,0.80
2023-09-24T01:09:49.380Z,0.80
2023-09-24T01:10:49.352Z,1.00
2023-09-24T01:11:49.370Z,1.10
2023-09-24T01:12:49.313Z,0.90
2023-09-24T01:13:49.501Z,0.80
2023-09-24T01:14:49.335Z,1.00
2023-09-24T01:15:49.305Z,1.10
2023-09-24T01:16:49.279Z,0.90
2023-09-24T01:17:49.437Z,0.90
2023-09-24T01:18:49.316Z,0.70
2023-09-24T01:19:49.244Z,1.00
2023-09-24T01:20:49.302Z,0.90
2023-09-24T01:21:49.228Z,0.70
2023-09-24T01:22:49.213Z,1.00
2023-09-24T01:23:49.411Z,1.10
2023-09-24T01:24:49.185Z,0.90
2023-09-24T01:25:49.199Z,1.20
2023-09-24T01:26:49.237Z,0.90
2023-09-24T01:27:49.150Z,1.00
2023-09-24T01:28:49.181Z,0.90
2023-09-24T01:29:49.146Z,0.90
2023-09-24T01:30:49.119Z,0.90
2023-09-24T01:31:49.110Z,1.00
2023-09-24T01:32:49.190Z,0.90
2023-09-24T01:33:50.069Z,0.90
2023-09-24T01:34:49.074Z,1.00
2023-09-24T01:35:49.158Z,0.70
2023-09-24T01:36:49.060Z,0.90
2023-09-24T01:37:49.045Z,1.20
2023-09-24T01:38:49.486Z,1.00
2023-09-24T01:39:49.036Z,1.00
2023-09-24T01:40:49.008Z,1.10
2023-09-24T01:41:49.023Z,0.70
2023-09-24T01:42:49.028Z,1.10
2023-09-24T01:43:49.188Z,0.90
2023-09-24T01:44:49.016Z,0.80
2023-09-24T01:45:48.964Z,1.00
2023-09-24T01:46:49.096Z,1.00
2023-09-24T01:47:48.962Z,1.00
2023-09-24T01:48:48.958Z,0.90
2023-09-24T01:49:48.943Z,0.80
2023-09-24T01:50:48.934Z,0.90
2023-09-24T01:51:48.901Z,0.70
2023-09-24T01:52:48.889Z,1.10
2023-09-24T01:53:49.143Z,0.80
2023-09-24T01:54:48.950Z,0.80
2023-09-24T01:55:48.859Z,1.20
2023-09-24T01:56:48.863Z,0.90
2023-09-24T01:57:48.822Z,0.80
2023-09-24T01:58:48.821Z,1.20
2023-09-24T01:59:48.872Z,1.10
2023-09-24T02:00:48.807Z,0.90
2023-09-24T02:01:48.810Z,1.30
2023-09-24T02:02:48.900Z,1.00
2023-09-24T02:03:49.151Z,1.10
2023-09-24T02:04:48.758Z,0.90
2023-09-24T02:05:48.762Z,1.20
2023-09-24T02:06:48.736Z,1.00
2023-09-24T02:07:48.733Z,1.10
2023-09-24T02:08:48.743Z,1.10
2023-09-24T02:09:48.718Z,1.30
2023-09-24T02:10:48.697Z,1.00
2023-09-24T02:11:48.801Z,1.20
2023-09-24T02:12:48.675Z,1.20
2023-09-24T02:13:48.819Z,1.00
2023-09-24T02:14:48.771Z,0.90
2023-09-24T02:15:48.631Z,1.10
2023-09-24T02:16:48.647Z,1.00
2023-09-24T02:17:48.694Z,1.20
2023-09-24T02:18:48.629Z,1.40
2023-09-24T02:19:48.619Z,1.20
2023-09-24T02:20:48.615Z,1.00
2023-09-24T02:21:48.563Z,1.30
2023-09-24T02:22:48.549Z,1.20
2023-09-24T02:23:48.812Z,1.40
2023-09-24T02:24:48.546Z,1.50
2023-09-24T02:25:48.666Z,1.00
2023-09-24T02:26:48.545Z,1.50
2023-09-24T02:27:48.493Z,1.00
2023-09-24T02:28:48.488Z,1.30
2023-09-24T02:29:48.642Z,1.40
2023-09-24T02:30:48.754Z,1.00
2023-09-24T02:31:48.492Z,1.10
2023-09-24T02:32:48.510Z,1.20
2023-09-24T02:33:48.658Z,1.10
2023-09-24T02:34:48.437Z,1.30
2023-09-24T02:35:48.458Z,1.20
2023-09-24T02:36:48.393Z,0.90
2023-09-24T02:37:48.393Z,1.10
2023-09-24T02:38:48.384Z,1.00
2023-09-24T02:39:48.403Z,1.40
2023-09-24T02:40:48.367Z,0.90
2023-09-24T02:41:48.389Z,1.00
2023-09-24T02:42:48.518Z,0.80
2023-09-24T02:43:48.549Z,1.10
2023-09-24T02:44:48.345Z,1.30
2023-09-24T02:45:48.385Z,0.90
2023-09-24T02:46:48.295Z,1.00
2023-09-24T02:47:48.447Z,1.10
2023-09-24T02:48:48.358Z,1.00
2023-09-24T02:49:48.270Z,1.00
2023-09-24T02:50:48.274Z,1.00
2023-09-24T02:51:48.228Z,0.90
2023-09-24T02:52:48.324Z,0.90
2023-09-24T02:53:48.458Z,1.00
2023-09-24T02:54:48.239Z,0.80
2023-09-24T02:55:48.183Z,0.90
2023-09-24T02:56:48.201Z,0.90
2023-09-24T02:57:48.193Z,1.00
2023-09-24T02:58:48.143Z,0.80
2023-09-24T02:59:48.181Z,0.70
2023-09-24T03:00:48.133Z,1.00
2023-09-24T03:01:48.166Z,1.40
2023-09-24T03:02:48.221Z,1.00
2023-09-24T03:03:48.490Z,1.20
2023-09-24T03:04:48.100Z,0.80
2023-09-24T03:05:48.128Z,1.00
2023-09-24T03:06:48.073Z,0.90
2023-09-24T03:07:48.060Z,0.90
2023-09-24T03:08:48.085Z,1.10
2023-09-24T03:09:48.079Z,0.90
2023-09-24T03:10:48.036Z,1.10
2023-09-24T03:11:48.118Z,1.10
2023-09-24T03:12:48.019Z,1.00
2023-09-24T03:13:48.144Z,0.90
2023-09-24T03:14:48.037Z,1.10
2023-09-24T03:15:47.995Z,1.10
2023-09-24T03:16:47.955Z,0.80
2023-09-24T03:17:48.083Z,0.90
2023-09-24T03:18:47.999Z,1.20
2023-09-24T03:19:47.926Z,0.90
2023-09-24T03:20:47.984Z,1.00
2023-09-24T03:21:47.944Z,1.00
2023-09-24T03:22:47.897Z,1.10
2023-09-24T03:23:48.143Z,1.30
2023-09-24T03:24:47.867Z,0.90
2023-09-24T03:25:47.881Z,1.10
2023-09-24T03:26:47.914Z,1.00
2023-09-24T03:27:47.869Z,1.00
2023-09-24T03:28:47.837Z,1.00
2023-09-24T03:29:47.910Z,1.00
2023-09-24T03:30:47.831Z,1.00
2023-09-24T03:31:47.793Z,1.00
2023-09-24T03:32:48.083Z,1.00
2023-09-24T03:33:48.086Z,1.60
2023-09-24T03:34:47.777Z,1.20
2023-09-24T03:35:47.838Z,1.20
2023-09-24T03:36:47.737Z,1.00
2023-09-24T03:37:47.747Z,1.40
2023-09-24T03:38:47.823Z,1.20
2023-09-24T03:39:47.765Z,0.80
2023-09-24T03:40:47.742Z,1.00
2023-09-24T03:41:47.717Z,1.00
2023-09-24T03:42:47.761Z,1.10
2023-09-24T03:43:47.845Z,1.30
2023-09-24T03:44:47.764Z,1.20
2023-09-24T03:45:47.693Z,0.90
2023-09-24T03:46:47.634Z,1.20
2023-09-24T03:47:47.848Z,0.90
2023-09-24T03:48:47.648Z,1.30
2023-09-24T03:49:47.601Z,1.40
2023-09-24T03:50:47.772Z,1.00
2023-09-24T03:51:47.585Z,1.30
2023-09-24T03:52:47.561Z,1.00
2023-09-24T03:53:47.823Z,1.00
2023-09-24T03:54:47.680Z,1.40
2023-09-24T03:55:47.546Z,1.20
2023-09-24T03:56:47.603Z,1.10
2023-09-24T03:57:47.515Z,1.20
2023-09-24T03:58:47.601Z,1.00
2023-09-24T03:59:47.549Z,1.00
2023-09-24T04:00:47.536Z,1.50
2023-09-24T04:01:47.584Z,1.20
2023-09-24T04:02:47.577Z,1.10
2023-09-24T04:03:47.740Z,1.20
2023-09-24T04:04:47.493Z,1.20
2023-09-24T04:05:47.487Z,1.10
2023-09-24T04:06:47.445Z,1.00
2023-09-24T04:07:47.412Z,0.90
2023-09-24T04:08:47.443Z,1.00
2023-09-24T04:09:47.384Z,0.80
2023-09-24T04:10:47.405Z,1.00
2023-09-24T04:11:47.388Z,1.10
2023-09-24T04:12:47.417Z,1.30
2023-09-24T04:13:47.459Z,0.90
2023-09-24T04:14:47.356Z,1.10
2023-09-24T04:15:47.338Z,0.90
2023-09-24T04:16:47.343Z,1.00
2023-09-24T04:17:47.409Z,1.20
2023-09-24T04:18:47.372Z,0.90
2023-09-24T04:19:47.281Z,1.20
2023-09-24T04:20:47.330Z,1.20
2023-09-24T04:21:47.275Z,1.00
2023-09-24T04:22:47.308Z,1.10
2023-09-24T04:23:47.551Z,0.70
2023-09-24T04:24:47.291Z,0.90
2023-09-24T04:25:47.229Z,0.90
2023-09-24T04:26:47.238Z,1.30
2023-09-24T04:27:47.200Z,1.20
2023-09-24T04:28:49.205Z,1.30
2023-09-24T04:29:47.209Z,1.40
2023-09-24T04:30:47.267Z,1.10
2023-09-24T04:31:47.132Z,1.00
2023-09-24T04:32:47.180Z,1.30
2023-09-24T04:33:47.492Z,1.00
2023-09-24T04:34:47.294Z,1.00
2023-09-24T04:35:47.250Z,1.30
2023-09-24T04:36:47.135Z,1.10
2023-09-24T04:37:47.082Z,1.20
2023-09-24T04:38:47.124Z,1.10
2023-09-24T04:39:47.173Z,1.60
2023-09-24T04:40:47.042Z,1.30
2023-09-24T04:41:47.065Z,1.20
2023-09-24T04:42:47.027Z,1.50
2023-09-24T04:43:47.267Z,1.20
2023-09-24T04:44:47.053Z,1.20
2023-09-24T04:45:47.053Z,1.30
2023-09-24T04:46:47.018Z,1.20
2023-09-24T04:47:47.260Z,1.10
2023-09-24T04:48:47.039Z,1.30
2023-09-24T04:49:47.648Z,1.10
2023-09-24T04:50:46.943Z,1.20
2023-09-24T04:51:46.935Z,1.10
2023-09-24T04:52:46.998Z,1.10
2023-09-24T04:53:47.160Z,1.30
2023-09-24T04:54:46.887Z,1.30
2023-09-24T04:55:46.897Z,1.20
2023-09-24T04:56:46.968Z,1.20
2023-09-24T04:57:47.001Z,1.50
2023-09-24T04:58:46.879Z,1.10
2023-09-24T04:59:46.902Z,1.30
2023-09-24T05:00:46.823Z,1.10
2023-09-24T05:01:46.821Z,0.90
2023-09-24T05:02:46.863Z,1.30
2023-09-24T05:03:47.067Z,0.80
2023-09-24T05:04:47.004Z,1.10
2023-09-24T05:05:46.853Z,1.50
2023-09-24T05:06:46.764Z,1.20
2023-09-24T05:07:46.765Z,1.40
2023-09-24T05:08:46.764Z,1.10
2023-09-24T05:09:46.721Z,1.20
2023-09-24T05:10:46.734Z,1.20
2023-09-24T05:11:46.769Z,0.90
2023-09-24T05:12:46.683Z,1.00
2023-09-24T05:13:46.860Z,1.30
2023-09-24T05:14:46.694Z,1.00
2023-09-24T05:15:46.657Z,1.40
2023-09-24T05:16:46.718Z,1.60
2023-09-24T05:17:46.713Z,1.60
2023-09-24T05:18:46.698Z,1.40
2023-09-24T05:19:46.629Z,1.20
2023-09-24T05:20:46.651Z,1.50
2023-09-24T05:21:46.612Z,1.60
2023-09-24T05:22:46.595Z,1.30
2023-09-24T05:23:47.002Z,1.20
2023-09-24T05:24:48.802Z,1.30
2023-09-24T05:25:46.584Z,1.10
2023-09-24T05:26:46.551Z,1.30
2023-09-24T05:27:46.524Z,1.60
2023-09-24T05:28:46.547Z,1.30
2023-09-24T05:29:46.528Z,1.50
2023-09-24T05:30:46.495Z,1.30
2023-09-24T05:31:46.506Z,1.30
2023-09-24T05:32:46.529Z,1.90
2023-09-24T05:33:46.663Z,1.40
2023-09-24T05:34:46.493Z,1.30
2023-09-24T05:35:46.471Z,1.70
2023-09-24T05:36:46.448Z,1.40
2023-09-24T05:37:46.475Z,1.40
2023-09-24T05:38:46.452Z,1.40
2023-09-24T05:39:46.390Z,1.50
2023-09-24T05:40:46.411Z,1.40
2023-09-24T05:41:46.592Z,1.70
2023-09-24T05:42:46.376Z,1.40
2023-09-24T05:43:46.545Z,1.10
2023-09-24T05:44:46.429Z,1.40
2023-09-24T05:45:46.330Z,1.40
2023-09-24T05:46:46.363Z,1.40
2023-09-24T05:47:46.405Z,1.30
2023-09-24T05:48:46.314Z,1.20
2023-09-24T05:49:46.303Z,1.20
2023-09-24T05:50:46.306Z,1.40
2023-09-24T05:51:46.270Z,1.30
2023-09-24T05:52:46.292Z,1.20
2023-09-24T05:53:46.449Z,1.10
2023-09-24T05:54:46.243Z,1.20
2023-09-24T05:55:46.234Z,1.10
2023-09-24T05:56:46.249Z,1.20
2023-09-24T05:57:46.233Z,1.30
2023-09-24T05:58:46.204Z,1.10
2023-09-24T05:59:46.212Z,1.20
2023-09-24T06:00:46.168Z,1.20
2023-09-24T06:01:46.240Z,1.30
2023-09-24T06:02:46.215Z,1.40
2023-09-24T06:03:55.086Z,1.80
2023-09-24T06:04:46.179Z,1.20
2023-09-24T06:05:46.171Z,1.50
2023-09-24T06:06:46.124Z,1.90
2023-09-24T06:07:46.112Z,1.50
2023-09-24T06:08:46.119Z,1.30
2023-09-24T06:09:46.092Z,1.50
2023-09-24T06:10:46.147Z,1.40
2023-09-24T06:11:46.145Z,1.40
2023-09-24T06:12:46.075Z,1.10
2023-09-24T06:13:46.181Z,1.10
2023-09-24T06:14:46.033Z,1.20
2023-09-24T06:15:46.022Z,1.50
2023-09-24T06:16:46.055Z,1.40
2023-09-24T06:17:46.198Z,1.30
2023-09-24T06:18:46.114Z,1.70
2023-09-24T06:19:45.982Z,1.50
2023-09-24T06:20:46.071Z,1.50
2023-09-24T06:21:45.939Z,1.60
2023-09-24T06:22:45.970Z,1.20
2023-09-24T06:23:45.962Z,1.50
2023-09-24T06:24:45.953Z,1.20
2023-09-24T06:25:45.905Z,1.40
2023-09-24T06:26:45.910Z,1.30
2023-09-24T06:27:45.887Z,1.30
2023-09-24T06:28:56.184Z,1.20
2023-09-24T06:29:46.873Z,1.10
2023-09-24T06:30:45.837Z,1.00
2023-09-24T06:31:45.878Z,1.10
2023-09-24T06:32:45.882Z,1.20
2023-09-24T06:33:45.997Z,1.30
2023-09-24T06:34:45.812Z,1.30
2023-09-24T06:35:45.839Z,1.40
2023-09-24T06:36:45.782Z,1.00
2023-09-24T06:37:45.820Z,1.30
2023-09-24T06:38:45.786Z,1.00
2023-09-24T06:39:45.747Z,1.30
2023-09-24T06:40:45.841Z,1.10
2023-09-24T06:41:45.730Z,1.00
2023-09-24T06:42:45.730Z,1.40
2023-09-24T06:43:45.918Z,1.30
2023-09-24T06:44:45.704Z,1.20
2023-09-24T06:45:45.697Z,0.90
2023-09-24T06:46:45.725Z,1.10
2023-09-24T06:47:45.706Z,1.20
2023-09-24T06:48:45.696Z,1.30
2023-09-24T06:49:45.713Z,1.40
2023-09-24T06:50:45.647Z,1.10
2023-09-24T06:51:45.606Z,1.00
2023-09-24T06:52:48.189Z,1.00
2023-09-24T06:53:45.626Z,1.00
2023-09-24T06:54:45.573Z,1.40
2023-09-24T06:55:45.567Z,1.20
2023-09-24T06:56:45.636Z,1.30
2023-09-24T06:57:45.571Z,1.20
2023-09-24T06:58:45.538Z,1.20
2023-09-24T06:59:45.584Z,1.50
2023-09-24T07:00:45.516Z,1.50
2023-09-24T07:01:45.567Z,1.10
2023-09-24T07:02:45.697Z,1.10
2023-09-24T07:03:45.704Z,1.00
2023-09-24T07:04:45.488Z,1.00
2023-09-24T07:05:45.697Z,1.20
2023-09-24T07:06:45.477Z,0.80
2023-09-24T07:07:45.444Z,1.20
2023-09-24T07:08:45.657Z,1.10
2023-09-24T07:09:45.408Z,1.10
2023-09-24T07:10:46.234Z,1.00
2023-09-24T07:11:45.518Z,1.00
2023-09-24T07:12:45.427Z,1.20
2023-09-24T07:13:45.437Z,1.10
2023-09-24T07:14:45.453Z,1.20
2023-09-24T07:15:45.459Z,1.20
2023-09-24T07:16:48.127Z,1.20
2023-09-24T07:17:45.388Z,1.10
2023-09-24T07:18:45.510Z,1.10
2023-09-24T07:19:45.297Z,0.80
2023-09-24T07:20:45.337Z,1.10
2023-09-24T07:21:45.377Z,1.30
2023-09-24T07:22:45.331Z,1.20
2023-09-24T07:23:45.357Z,1.30
2023-09-24T07:24:45.408Z,1.20
2023-09-24T07:25:45.243Z,1.50
2023-09-24T07:26:45.339Z,1.30
2023-09-24T07:27:45.302Z,1.00
2023-09-24T07:28:45.282Z,1.20
2023-09-24T07:29:45.227Z,1.10
2023-09-24T07:30:45.314Z,1.30
2023-09-24T07:31:45.190Z,1.40
2023-09-24T07:32:45.295Z,1.20
2023-09-24T07:33:45.282Z,1.40
2023-09-24T07:34:45.170Z,1.20
2023-09-24T07:35:45.224Z,1.40
2023-09-24T07:37:02.309Z,1.40
2023-09-24T07:37:46.137Z,1.60
2023-09-24T07:38:45.130Z,1.60
2023-09-24T07:39:45.160Z,1.40
2023-09-24T07:40:45.172Z,1.60
2023-09-24T07:41:45.205Z,1.40
2023-09-24T07:42:45.203Z,1.30
2023-09-24T07:43:52.608Z,1.80
2023-09-24T07:44:45.084Z,1.20
2023-09-24T07:45:45.073Z,1.30
2023-09-24T07:46:44.994Z,1.40
2023-09-24T07:47:45.152Z,1.30
2023-09-24T07:48:45.343Z,1.30
2023-09-24T07:49:44.997Z,1.30
2023-09-24T07:50:45.044Z,1.30
2023-09-24T07:51:45.020Z,1.50
2023-09-24T07:52:44.982Z,1.40
2023-09-24T07:53:45.046Z,1.40
2023-09-24T07:54:47.251Z,1.20
2023-09-24T07:55:45.002Z,1.40
2023-09-24T07:56:45.095Z,1.30
2023-09-24T07:57:44.909Z,1.50
2023-09-24T07:58:44.952Z,1.70
2023-09-24T07:59:44.913Z,1.60
2023-09-24T08:00:44.880Z,1.50
2023-09-24T08:01:44.860Z,1.80
2023-09-24T08:02:45.099Z,1.60
2023-09-24T08:03:44.878Z,1.50
2023-09-24T08:04:44.870Z,1.30
2023-09-24T08:05:44.851Z,1.40
2023-09-24T08:06:44.846Z,1.30
2023-09-24T08:07:44.809Z,2.00
2023-09-24T08:08:55.022Z,1.20
2023-09-24T08:09:45.826Z,1.70
2023-09-24T08:10:44.795Z,1.20
2023-09-24T08:11:44.778Z,1.80
2023-09-24T08:12:44.755Z,1.70
2023-09-24T08:13:44.719Z,1.30
2023-09-24T08:14:44.761Z,1.60
2023-09-24T08:15:44.908Z,1.30
2023-09-24T08:16:44.717Z,1.50
2023-09-24T08:17:44.786Z,1.80
2023-09-24T08:18:44.755Z,1.30
2023-09-24T08:19:44.690Z,1.50
2023-09-24T08:20:44.700Z,1.50
2023-09-24T08:21:44.639Z,1.30
2023-09-24T08:22:44.643Z,1.50
2023-09-24T08:23:44.728Z,1.30
2023-09-24T08:24:44.608Z,1.60
2023-09-24T08:25:44.637Z,1.60
2023-09-24T08:26:44.583Z,2.00
2023-09-24T08:27:46.069Z,2.40
2023-09-24T08:28:44.693Z,2.30
2023-09-24T08:29:44.599Z,3.40
2023-09-24T08:30:44.608Z,3.00
2023-09-24T08:31:44.563Z,3.40
2023-09-24T08:32:44.559Z,3.20
2023-09-24T08:33:44.589Z,3.10
2023-09-24T08:34:44.506Z,3.40
2023-09-24T08:35:44.690Z,3.80
2023-09-24T08:36:44.488Z,3.70
2023-09-24T08:37:44.494Z,4.00
2023-09-24T08:38:44.471Z,3.00
2023-09-24T08:39:44.512Z,3.00
2023-09-24T08:40:44.426Z,2.70
2023-09-24T08:41:44.476Z,2.30
2023-09-24T08:42:44.443Z,2.40
2023-09-24T08:43:44.540Z,2.10
2023-09-24T08:44:44.457Z,2.20
2023-09-24T08:45:44.464Z,1.90
2023-09-24T08:46:44.373Z,2.00
2023-09-24T08:47:44.420Z,1.80
2023-09-24T08:48:44.689Z,1.40
2023-09-24T08:49:44.336Z,1.60
2023-09-24T08:50:44.344Z,1.60
2023-09-24T08:51:44.365Z,1.60
2023-09-24T08:52:44.285Z,1.40
2023-09-24T08:53:44.333Z,1.50
2023-09-24T08:54:44.343Z,1.40
2023-09-24T08:55:44.247Z,1.90
2023-09-24T08:56:44.312Z,1.90
2023-09-24T08:57:44.259Z,1.60
2023-09-24T08:58:44.259Z,1.50
2023-09-24T08:59:44.280Z,1.70
2023-09-24T09:00:44.286Z,1.70
2023-09-24T09:01:44.188Z,1.50
2023-09-24T09:02:44.334Z,1.60
2023-09-24T09:03:44.432Z,1.90
2023-09-24T09:04:44.198Z,1.60
2023-09-24T09:05:44.159Z,1.50
2023-09-24T09:06:44.136Z,1.70
2023-09-24T09:07:44.135Z,1.90
2023-09-24T09:08:44.148Z,1.60
2023-09-24T09:09:44.100Z,1.50
2023-09-24T09:10:44.153Z,1.70
2023-09-24T09:11:44.127Z,1.50
2023-09-24T09:12:44.063Z,1.50
2023-09-24T09:13:44.089Z,1.70
2023-09-24T09:14:44.073Z,1.70
2023-09-24T09:15:44.029Z,1.70
2023-09-24T09:16:44.083Z,1.50
2023-09-24T09:17:44.153Z,1.80
2023-09-24T09:18:44.106Z,1.80
2023-09-24T09:19:44.011Z,1.40
2023-09-24T09:20:44.144Z,1.40
2023-09-24T09:21:43.963Z,1.40
2023-09-24T09:22:43.952Z,1.50
2023-09-24T09:23:44.306Z,1.30
2023-09-24T09:24:43.964Z,1.30
2023-09-24T09:25:43.957Z,1.40
2023-09-24T09:26:43.942Z,1.70
2023-09-24T09:27:43.908Z,1.70
2023-09-24T09:28:43.910Z,1.70
2023-09-24T09:29:43.917Z,1.30
2023-09-24T09:30:44.027Z,1.10
2023-09-24T09:31:43.853Z,1.20
2023-09-24T09:32:43.879Z,1.30
2023-09-24T09:33:43.905Z,1.20
2023-09-24T09:34:43.871Z,1.80
2023-09-24T09:35:43.829Z,1.40
2023-09-24T09:36:43.816Z,1.40
2023-09-24T09:37:43.857Z,1.50
2023-09-24T09:38:43.854Z,1.30
2023-09-24T09:39:43.809Z,1.20
2023-09-24T09:40:43.758Z,1.30
2023-09-24T09:41:43.887Z,1.30
2023-09-24T09:42:43.734Z,1.20
2023-09-24T09:43:43.743Z,1.10
2023-09-24T09:44:43.802Z,1.20
2023-09-24T09:45:45.623Z,1.10
2023-09-24T09:46:43.697Z,1.30
2023-09-24T09:47:43.777Z,1.20
2023-09-24T09:48:43.706Z,1.10
2023-09-24T09:49:43.687Z,1.30
2023-09-24T09:50:43.717Z,1.00
2023-09-24T09:51:43.680Z,1.40
2023-09-24T09:52:43.639Z,0.80
2023-09-24T09:53:43.635Z,1.20
2023-09-24T09:54:43.716Z,1.00
2023-09-24T09:55:43.593Z,1.00
2023-09-24T09:56:43.670Z,0.60
2023-09-24T09:57:43.571Z,0.70
2023-09-24T09:58:43.601Z,0.80
2023-09-24T09:59:43.582Z,0.80
2023-09-24T10:00:43.773Z,1.10
2023-09-24T10:01:43.558Z,0.80
2023-09-24T10:02:43.604Z,0.70
2023-09-24T10:03:43.627Z,0.70
2023-09-24T10:04:43.518Z,0.90
2023-09-24T10:05:43.760Z,0.90
2023-09-24T10:06:43.506Z,0.60
2023-09-24T10:07:43.653Z,0.50
2023-09-24T10:08:43.548Z,0.60
2023-09-24T10:09:43.474Z,0.80
2023-09-24T10:10:43.721Z,0.80
2023-09-24T10:11:43.489Z,1.10
2023-09-24T10:12:43.423Z,0.70
2023-09-24T10:13:43.412Z,1.00
2023-09-24T10:14:43.411Z,0.90
2023-09-24T10:15:43.378Z,0.40
2023-09-24T10:16:43.380Z,0.50
2023-09-24T10:17:43.413Z,0.40
2023-09-24T10:18:43.370Z,0.90
2023-09-24T10:19:43.391Z,1.80
2023-09-24T10:20:43.332Z,2.30
2023-09-24T10:21:43.303Z,2.20
2023-09-24T10:22:43.322Z,1.70
2023-09-24T10:23:43.352Z,1.70
2023-09-24T10:24:43.299Z,1.60
2023-09-24T10:25:43.303Z,0.80
2023-09-24T10:26:43.348Z,0.70
2023-09-24T10:27:54.493Z,0.70
2023-09-24T10:28:44.264Z,0.50
2023-09-24T10:29:43.271Z,1.00
2023-09-24T10:30:43.234Z,0.70
2023-09-24T10:31:43.229Z,0.60
2023-09-24T10:32:43.368Z,0.60
2023-09-24T10:33:43.297Z,0.70
2023-09-24T10:34:43.231Z,0.40
2023-09-24T10:35:43.213Z,0.80
2023-09-24T10:36:43.167Z,0.60
2023-09-24T10:37:43.191Z,0.70
2023-09-24T10:38:43.135Z,0.40
2023-09-24T10:39:43.140Z,0.60
2023-09-24T10:40:43.099Z,0.40
2023-09-24T10:41:43.123Z,0.40
2023-09-24T10:42:43.296Z,0.50
2023-09-24T10:43:43.137Z,0.60
2023-09-24T10:44:43.141Z,0.60
2023-09-24T10:45:43.060Z,0.40
2023-09-24T10:46:43.059Z,0.50
2023-09-24T10:47:43.375Z,0.50
2023-09-24T10:48:49.655Z,0.50
2023-09-24T10:49:44.027Z,0.50
2023-09-24T10:50:43.089Z,0.50
2023-09-24T10:51:43.017Z,0.50
2023-09-24T10:52:43.110Z,0.50
2023-09-24T10:53:42.990Z,0.50
2023-09-24T10:54:42.973Z,1.30
2023-09-24T10:55:44.095Z,0.50
2023-09-24T10:56:42.964Z,0.60
2023-09-24T10:57:43.074Z,0.60
2023-09-24T10:58:42.903Z,0.40
2023-09-24T10:59:42.898Z,0.60
2023-09-24T11:00:42.971Z,0.70
2023-09-24T11:01:42.936Z,0.80
2023-09-24T11:02:42.950Z,0.80
2023-09-24T11:03:42.968Z,0.40
2023-09-24T11:04:42.854Z,0.50
2023-09-24T11:05:42.941Z,0.40
2023-09-24T11:06:42.853Z,0.60
2023-09-24T11:07:42.840Z,0.60
2023-09-24T11:08:42.815Z,0.50
2023-09-24T11:09:42.821Z,0.60
2023-09-24T11:10:42.816Z,0.60
2023-09-24T11:11:42.874Z,0.40
2023-09-24T11:12:42.760Z,0.60
2023-09-24T11:13:42.752Z,0.60
2023-09-24T11:14:42.817Z,0.40
2023-09-24T11:15:42.831Z,0.60
2023-09-24T11:16:42.716Z,0.40
2023-09-24T11:17:42.949Z,0.60
2023-09-24T11:18:42.822Z,0.40
2023-09-24T11:19:42.696Z,0.50
2023-09-24T11:20:42.712Z,0.50
2023-09-24T11:21:42.662Z,0.40
2023-09-24T11:22:42.694Z,0.40
2023-09-24T11:23:43.716Z,0.50
2023-09-24T11:24:42.705Z,0.50
2023-09-24T11:25:42.713Z,0.70
2023-09-24T11:26:42.612Z,0.40
2023-09-24T11:27:42.626Z,0.50
2023-09-24T11:28:42.581Z,0.50
2023-09-24T11:29:42.595Z,0.40
2023-09-24T11:30:42.578Z,0.70
2023-09-24T11:31:42.627Z,0.40
2023-09-24T11:32:42.605Z,0.40
2023-09-24T11:33:42.727Z,0.60
2023-09-24T11:34:42.600Z,0.40
2023-09-24T11:35:42.536Z,0.60
2023-09-24T11:36:42.500Z,0.50
2023-09-24T11:37:42.487Z,0.40
2023-09-24T11:38:42.627Z,0.50
2023-09-24T11:39:42.448Z,0.50
2023-09-24T11:40:42.541Z,0.50
2023-09-24T11:41:42.484Z,0.50
2023-09-24T11:42:42.574Z,0.60
2023-09-24T11:43:42.453Z,0.60
2023-09-24T11:44:42.655Z,0.40
2023-09-24T11:45:42.469Z,0.60
2023-09-24T11:46:42.426Z,0.40
2023-09-24T11:47:42.543Z,0.40
2023-09-24T11:48:42.416Z,0.50
2023-09-24T11:49:42.400Z,0.60
2023-09-24T11:50:42.408Z,0.50
2023-09-24T11:51:42.332Z,0.50
2023-09-24T11:52:42.327Z,0.30
2023-09-24T11:53:42.334Z,0.50
2023-09-24T11:54:42.293Z,0.40
2023-09-24T11:55:42.393Z,0.40
2023-09-24T11:56:42.342Z,0.80
2023-09-24T11:57:42.297Z,0.90
2023-09-24T11:58:42.298Z,0.80
2023-09-24T11:59:42.357Z,0.60
2023-09-24T12:00:42.293Z,0.50
2023-09-24T12:01:42.216Z,0.50
2023-09-24T12:02:42.225Z,4.00
2023-09-24T12:03:42.427Z,4.50
2023-09-24T12:04:42.224Z,4.50
2023-09-24T12:05:42.255Z,6.40
2023-09-24T12:06:42.187Z,1.70
2023-09-24T12:07:42.192Z,0.70
2023-09-24T12:08:42.203Z,0.90
2023-09-24T12:09:42.143Z,0.80
2023-09-24T12:10:42.192Z,0.60
2023-09-24T12:11:42.175Z,0.50
2023-09-24T12:12:42.125Z,0.50
2023-09-24T12:13:42.097Z,0.70
2023-09-24T12:14:42.102Z,0.40
2023-09-24T12:15:42.235Z,0.90
2023-09-24T12:16:42.053Z,1.40
2023-09-24T12:17:45.052Z,3.00
2023-09-24T12:18:42.114Z,2.40
2023-09-24T12:19:42.066Z,2.80
2023-09-24T12:20:42.122Z,1.90
2023-09-24T12:21:42.026Z,1.20
2023-09-24T12:22:41.992Z,0.60
2023-09-24T12:23:41.981Z,0.60
2023-09-24T12:24:41.958Z,1.10
2023-09-24T12:25:41.965Z,0.60
2023-09-24T12:26:42.061Z,0.70
2023-09-24T12:27:41.947Z,0.40
2023-09-24T12:28:41.966Z,0.60
2023-09-24T12:29:41.931Z,0.60
2023-09-24T12:30:41.962Z,0.50
2023-09-24T12:31:41.912Z,0.50
2023-09-24T12:32:41.966Z,1.20
2023-09-24T12:33:42.084Z,9.80
2023-09-24T12:34:42.048Z,3.50
2023-09-24T12:35:42.392Z,1.00
2023-09-24T12:36:41.839Z,0.50
2023-09-24T12:37:41.949Z,2.10
2023-09-24T12:38:41.867Z,5.30
2023-09-24T12:39:41.819Z,9.40
2023-09-24T12:40:41.935Z,8.70
2023-09-24T12:41:41.817Z,4.70
2023-09-24T12:42:41.767Z,3.50
2023-09-24T12:43:41.790Z,1.90
2023-09-24T12:44:41.868Z,1.30
2023-09-24T12:45:41.788Z,1.30
2023-09-24T12:46:41.786Z,0.90
2023-09-24T12:47:41.839Z,0.70
2023-09-24T12:48:41.813Z,0.80
2023-09-24T12:49:41.738Z,0.60
2023-09-24T12:50:41.697Z,0.60
2023-09-24T12:51:41.697Z,0.90
2023-09-24T12:52:41.673Z,0.70
2023-09-24T12:53:41.811Z,0.70
2023-09-24T12:54:41.640Z,0.60
2023-09-24T12:55:41.635Z,0.60
2023-09-24T12:56:41.674Z,1.30
2023-09-24T12:57:41.636Z,1.50
2023-09-24T12:58:41.627Z,2.00
2023-09-24T12:59:41.701Z,2.20
2023-09-24T13:00:41.602Z,5.10
2023-09-24T13:01:41.648Z,3.80
2023-09-24T13:02:41.675Z,3.20
2023-09-24T13:03:41.623Z,5.00
2023-09-24T13:04:41.676Z,4.90
2023-09-24T13:05:41.585Z,3.60
2023-09-24T13:06:41.546Z,3.30
2023-09-24T13:07:41.543Z,3.60
2023-09-24T13:08:41.585Z,2.10
2023-09-24T13:09:41.518Z,1.60
2023-09-24T13:10:41.486Z,1.20
2023-09-24T13:11:41.464Z,0.60
2023-09-24T13:12:41.486Z,0.30
2023-09-24T13:13:41.430Z,1.00
2023-09-24T13:14:41.454Z,2.00
2023-09-24T13:15:41.405Z,1.50
2023-09-24T13:16:41.401Z,1.80
2023-09-24T13:17:42.357Z,2.70
2023-09-24T13:18:41.516Z,1.60